La rose des vents
Donnes mto: Semaine 24/09/07 - 30/09/07 (S 39)
Date Horaire Temp. E. Hum. E. P.atmo. Pluie Vent 1mn Direction Ensoleilleme Ev.Tr. Solaire P. de rose Temp au vent Rafales
24/09/2007 00:00 19,0 C 51 % 1019,5 hPa 0,0 l/m 5,1 km/h (1 Bft) NO 0,00 h 0,076 mm 0 W/m 8,7 C 19,0 C 7,6 km/h (2 Bft)
24/09/2007 01:00 18,8 C 53 % 1019,0 hPa 0,0 l/m 3,0 km/h (1 Bft) NO 0,00 h 0,076 mm 0 W/m 8,9 C 18,8 C 4,9 km/h (1 Bft)
24/09/2007 02:00 18,4 C 53 % 1018,7 hPa 0,0 l/m 2,2 km/h (1 Bft) NO 0,00 h 0,051 mm 0 W/m 8,7 C 18,4 C 3,6 km/h (1 Bft)
24/09/2007 03:00 17,4 C 58 % 1018,2 hPa 0,0 l/m 1,7 km/h (1 Bft) NO 0,00 h 0,051 mm 0 W/m 9,2 C 17,4 C 2,9 km/h (1 Bft)
24/09/2007 04:00 17,5 C 59 % 1017,5 hPa 0,0 l/m 3,1 km/h (1 Bft) N-NO 0,00 h 0,051 mm 0 W/m 9,5 C 17,5 C 5,2 km/h (1 Bft)
24/09/2007 05:00 18,1 C 58 % 1017,2 hPa 0,0 l/m 2,1 km/h (1 Bft) N-NO 0,00 h 0,051 mm 0 W/m 9,8 C 18,1 C 3,7 km/h (1 Bft)
24/09/2007 06:00 17,7 C 60 % 1017,3 hPa 0,0 l/m 2,9 km/h (1 Bft) N 0,00 h 0,051 mm 0 W/m 9,8 C 17,7 C 5,4 km/h (1 Bft)
24/09/2007 07:00 17,5 C 61 % 1017,7 hPa 0,0 l/m 2,5 km/h (1 Bft) N-NO 0,00 h 0,051 mm 15 W/m 9,7 C 17,5 C 4,8 km/h (1 Bft)
24/09/2007 08:00 18,7 C 57 % 1017,9 hPa 0,0 l/m 3,2 km/h (1 Bft) NO 0,52 h 0,025 mm 115 W/m 9,9 C 18,7 C 5,7 km/h (1 Bft)
24/09/2007 09:00 22,2 C 48 % 1017,7 hPa 0,0 l/m 1,4 km/h (1 Bft) N 0,87 h 0,102 mm 264 W/m 10,5 C 22,2 C 3,2 km/h (1 Bft)
24/09/2007 10:00 23,7 C 45 % 1017,8 hPa 0,0 l/m 8,0 km/h (2 Bft) E 1,00 h 0,178 mm 440 W/m 11,2 C 23,7 C 12,8 km/h (3 Bft)
24/09/2007 11:00 24,3 C 50 % 1017,8 hPa 0,0 l/m 7,2 km/h (2 Bft) E-NE 1,00 h 0,356 mm 561 W/m 13,1 C 24,3 C 11,0 km/h (2 Bft)
24/09/2007 12:00 25,4 C 45 % 1017,4 hPa 0,0 l/m 6,7 km/h (2 Bft) E 1,00 h 0,406 mm 636 W/m 12,3 C 25,4 C 12,3 km/h (3 Bft)
24/09/2007 13:00 24,8 C 49 % 1017,1 hPa 0,0 l/m 7,4 km/h (2 Bft) E 1,00 h 0,457 mm 665 W/m 13,2 C 24,8 C 12,8 km/h (3 Bft)
24/09/2007 14:00 25,0 C 45 % 1016,5 hPa 0,0 l/m 5,6 km/h (1 Bft) S-SE 1,00 h 0,483 mm 642 W/m 12,1 C 25,0 C 10,7 km/h (2 Bft)
24/09/2007 15:00 26,1 C 35 % 1015,9 hPa 0,0 l/m 6,6 km/h (2 Bft) E 1,00 h 0,457 mm 548 W/m 9,4 C 26,1 C 11,3 km/h (2 Bft)
24/09/2007 16:00 24,7 C 46 % 1015,7 hPa 0,0 l/m 6,6 km/h (2 Bft) E 1,00 h 0,432 mm 402 W/m 12,2 C 24,7 C 10,7 km/h (2 Bft)
24/09/2007 17:00 23,4 C 54 % 1015,5 hPa 0,0 l/m 2,9 km/h (1 Bft) E-SE 1,00 h 0,305 mm 249 W/m 13,6 C 23,4 C 5,3 km/h (1 Bft)
24/09/2007 18:00 22,1 C 62 % 1015,8 hPa 0,0 l/m 1,7 km/h (1 Bft) E-SE 0,70 h 0,178 mm 93 W/m 14,5 C 22,1 C 3,8 km/h (1 Bft)
24/09/2007 19:00 19,7 C 74 % 1015,9 hPa 0,0 l/m 0,3 km/h (0 Bft) E-SE 0,05 h 0,076 mm 13 W/m 14,8 C 19,7 C 0,8 km/h (0 Bft)
24/09/2007 20:00 18,4 C 80 % 1015,7 hPa 0,0 l/m 1,0 km/h (0 Bft) E 0,00 h 0,000 mm 0 W/m 14,8 C 18,4 C 2,0 km/h (1 Bft)
24/09/2007 21:00 17,9 C 79 % 1015,7 hPa 0,0 l/m 4,7 km/h (1 Bft) O 0,00 h 0,025 mm 0 W/m 14,2 C 17,9 C 5,9 km/h (2 Bft)
24/09/2007 22:00 17,0 C 68 % 1015,4 hPa 0,0 l/m 6,0 km/h (2 Bft) O-NO 0,00 h 0,025 mm 0 W/m 11,1 C 17,0 C 8,3 km/h (2 Bft)
24/09/2007 23:00 17,0 C 63 % 1015,1 hPa 0,0 l/m 2,8 km/h (1 Bft) NO 0,00 h 0,051 mm 0 W/m 10,0 C 17,0 C 4,7 km/h (1 Bft)
25/09/2007 00:00 16,9 C 65 % 1014,8 hPa 0,0 l/m 0,5 km/h (0 Bft) NO 0,00 h 0,051 mm 0 W/m 10,3 C 16,9 C 1,6 km/h (1 Bft)
25/09/2007 01:00 16,8 C 59 % 1014,7 hPa 0,0 l/m 2,7 km/h (1 Bft) NO 0,00 h 0,025 mm 0 W/m 8,6 C 16,8 C 4,0 km/h (1 Bft)
25/09/2007 02:00 16,9 C 57 % 1014,3 hPa 0,0 l/m 4,0 km/h (1 Bft) O-NO 0,00 h 0,051 mm 0 W/m 8,4 C 16,9 C 5,6 km/h (1 Bft)
25/09/2007 03:00 16,5 C 59 % 1013,4 hPa 0,0 l/m 3,2 km/h (1 Bft) NO 0,00 h 0,051 mm 0 W/m 8,4 C 16,5 C 4,7 km/h (1 Bft)
25/09/2007 04:00 16,7 C 59 % 1012,7 hPa 0,0 l/m 3,9 km/h (1 Bft) O-NO 0,00 h 0,051 mm 0 W/m 8,6 C 16,7 C 5,5 km/h (1 Bft)
25/09/2007 05:00 16,4 C 60 % 1012,2 hPa 0,0 l/m 5,0 km/h (1 Bft) O-NO 0,00 h 0,051 mm 0 W/m 8,6 C 16,4 C 6,5 km/h (2 Bft)
25/09/2007 06:00 16,0 C 61 % 1011,9 hPa 0,0 l/m 3,0 km/h (1 Bft) O-NO 0,00 h 0,051 mm 0 W/m 8,5 C 16,0 C 4,2 km/h (1 Bft)
25/09/2007 07:00 15,7 C 61 % 1011,8 hPa 0,0 l/m 1,2 km/h (1 Bft) O-NO 0,02 h 0,051 mm 14 W/m 8,3 C 15,7 C 2,0 km/h (1 Bft)
25/09/2007 08:00 17,0 C 60 % 1011,6 hPa 0,0 l/m 0,9 km/h (0 Bft) O-NO 0,42 h 0,025 mm 96 W/m 9,3 C 17,0 C 2,1 km/h (1 Bft)
25/09/2007 09:00 20,6 C 50 % 1011,2 hPa 0,0 l/m 2,3 km/h (1 Bft) E-NE 1,00 h 0,076 mm 297 W/m 9,8 C 20,6 C 3,9 km/h (1 Bft)
25/09/2007 10:00 22,2 C 46 % 1010,9 hPa 0,0 l/m 3,3 km/h (1 Bft) E 1,00 h 0,203 mm 449 W/m 9,9 C 22,2 C 5,9 km/h (2 Bft)
25/09/2007 11:00 23,7 C 45 % 1010,6 hPa 0,0 l/m 7,2 km/h (2 Bft) E 1,00 h 0,305 mm 566 W/m 11,0 C 23,7 C 11,8 km/h (2 Bft)
25/09/2007 12:00 24,0 C 45 % 1010,2 hPa 0,0 l/m 11,2 km/h (2 Bft) E 1,00 h 0,406 mm 641 W/m 11,2 C 24,0 C 16,2 km/h (3 Bft)
25/09/2007 13:00 24,4 C 38 % 1009,5 hPa 0,0 l/m 9,2 km/h (2 Bft) E 1,00 h 0,508 mm 669 W/m 9,3 C 24,4 C 14,3 km/h (3 Bft)
25/09/2007 14:00 23,9 C 44 % 1008,7 hPa 0,0 l/m 7,3 km/h (2 Bft) E-SE 1,00 h 0,508 mm 634 W/m 11,0 C 23,9 C 13,0 km/h (3 Bft)
25/09/2007 15:00 23,8 C 49 % 1008,2 hPa 0,0 l/m 7,1 km/h (2 Bft) E 1,00 h 0,457 mm 549 W/m 12,4 C 23,8 C 12,9 km/h (3 Bft)
25/09/2007 16:00 23,0 C 56 % 1007,6 hPa 0,0 l/m 5,6 km/h (1 Bft) E 1,00 h 0,406 mm 418 W/m 13,8 C 23,0 C 10,3 km/h (2 Bft)
25/09/2007 17:00 22,3 C 60 % 1007,0 hPa 0,0 l/m 3,7 km/h (1 Bft) E 1,00 h 0,305 mm 264 W/m 14,2 C 22,3 C 7,4 km/h (2 Bft)
25/09/2007 18:00 20,9 C 61 % 1006,5 hPa 0,0 l/m 3,3 km/h (1 Bft) E 0,78 h 0,178 mm 101 W/m 13,2 C 20,9 C 6,3 km/h (2 Bft)
25/09/2007 19:00 18,5 C 70 % 1006,4 hPa 0,0 l/m 2,9 km/h (1 Bft) E-NE 0,03 h 0,076 mm 12 W/m 12,8 C 18,5 C 4,6 km/h (1 Bft)
25/09/2007 20:00 17,8 C 71 % 1006,2 hPa 0,0 l/m 0,9 km/h (0 Bft) E 0,00 h 0,025 mm 0 W/m 12,4 C 17,8 C 2,3 km/h (1 Bft)
25/09/2007 21:00 17,3 C 76 % 1006,0 hPa 0,0 l/m 1,6 km/h (1 Bft) N-NO 0,00 h 0,025 mm 0 W/m 13,0 C 17,3 C 3,5 km/h (1 Bft)
25/09/2007 22:00 16,7 C 76 % 1005,9 hPa 0,0 l/m 4,1 km/h (1 Bft) N-NO 0,00 h 0,025 mm 0 W/m 12,4 C 16,7 C 6,7 km/h (2 Bft)
25/09/2007 23:00 16,3 C 75 % 1006,1 hPa 0,0 l/m 6,6 km/h (2 Bft) O-NO 0,00 h 0,025 mm 0 W/m 11,8 C 16,3 C 9,4 km/h (2 Bft)
26/09/2007 00:00 16,2 C 70 % 1005,9 hPa 0,0 l/m 8,0 km/h (2 Bft) O-NO 0,00 h 0,051 mm 0 W/m 10,6 C 16,2 C 11,2 km/h (2 Bft)
26/09/2007 01:00 16,2 C 60 % 1005,4 hPa 0,0 l/m 9,9 km/h (2 Bft) O 0,00 h 0,051 mm 0 W/m 8,4 C 16,2 C 13,8 km/h (3 Bft)
26/09/2007 02:00 16,3 C 59 % 1005,1 hPa 0,0 l/m 9,2 km/h (2 Bft) O 0,00 h 0,076 mm 0 W/m 8,2 C 16,3 C 12,6 km/h (3 Bft)
26/09/2007 03:00 15,4 C 59 % 1004,5 hPa 0,0 l/m 5,2 km/h (1 Bft) O-NO 0,00 h 0,076 mm 0 W/m 7,4 C 15,4 C 7,3 km/h (2 Bft)
26/09/2007 04:00 14,8 C 60 % 1004,2 hPa 0,0 l/m 1,0 km/h (0 Bft) NO 0,00 h 0,051 mm 0 W/m 7,0 C 14,8 C 2,1 km/h (1 Bft)
26/09/2007 05:00 15,0 C 60 % 1004,0 hPa 0,0 l/m 4,3 km/h (1 Bft) O 0,00 h 0,051 mm 0 W/m 7,3 C 15,0 C 5,6 km/h (1 Bft)
26/09/2007 06:00 15,1 C 59 % 1003,9 hPa 0,0 l/m 3,2 km/h (1 Bft) N-NO 0,00 h 0,051 mm 0 W/m 7,1 C 15,1 C 5,0 km/h (1 Bft)
26/09/2007 07:00 15,2 C 59 % 1004,0 hPa 0,0 l/m 3,5 km/h (1 Bft) NO 0,07 h 0,051 mm 21 W/m 7,4 C 15,2 C 4,5 km/h (1 Bft)
26/09/2007 08:00 15,8 C 59 % 1003,7 hPa 0,0 l/m 2,1 km/h (1 Bft) O-NO 0,12 h 0,025 mm 41 W/m 7,7 C 15,8 C 3,6 km/h (1 Bft)
26/09/2007 09:00 15,6 C 63 % 1004,1 hPa 0,0 l/m 2,7 km/h (1 Bft) NE 0,00 h 0,051 mm 51 W/m 8,6 C 15,6 C 5,0 km/h (1 Bft)
26/09/2007 10:00 16,8 C 66 % 1004,4 hPa 0,0 l/m 5,4 km/h (1 Bft) N-NE 0,00 h 0,051 mm 84 W/m 10,5 C 16,8 C 9,3 km/h (2 Bft)
26/09/2007 11:00 16,4 C 71 % 1003,9 hPa 0,0 l/m 3,2 km/h (1 Bft) N-NE 0,00 h 0,076 mm 62 W/m 11,1 C 16,4 C 6,1 km/h (2 Bft)
26/09/2007 12:00 15,0 C 79 % 1003,8 hPa 20,2 l/m 7,5 km/h (2 Bft) N-NO 0,00 h 0,051 mm 14 W/m 11,3 C 15,0 C 10,5 km/h (2 Bft)
26/09/2007 13:00 13,0 C 92 % 1004,0 hPa 3,8 l/m 5,3 km/h (1 Bft) N 0,00 h 0,025 mm 97 W/m 11,6 C 13,0 C 8,9 km/h (2 Bft)
26/09/2007 14:00 14,9 C 92 % 1003,0 hPa 0,0 l/m 7,7 km/h (2 Bft) N-NE 0,70 h 0,051 mm 551 W/m 13,6 C 14,9 C 11,7 km/h (2 Bft)
26/09/2007 15:00 17,7 C 68 % 1002,1 hPa 0,0 l/m 10,7 km/h (2 Bft) E-NE 0,97 h 0,305 mm 618 W/m 11,8 C 17,7 C 15,2 km/h (3 Bft)
26/09/2007 16:00 17,4 C 64 % 1001,8 hPa 0,0 l/m 10,0 km/h (2 Bft) E-NE 0,27 h 0,381 mm 289 W/m 10,4 C 17,4 C 14,0 km/h (3 Bft)
26/09/2007 17:00 16,4 C 63 % 1001,8 hPa 0,0 l/m 6,9 km/h (2 Bft) E-NE 0,07 h 0,229 mm 114 W/m 9,4 C 16,4 C 10,3 km/h (2 Bft)
26/09/2007 18:00 13,4 C 77 % 1002,0 hPa 0,6 l/m 5,2 km/h (1 Bft) N-NO 0,00 h 0,102 mm 9 W/m 9,4 C 13,4 C 8,7 km/h (2 Bft)
26/09/2007 19:00 12,2 C 81 % 1001,5 hPa 0,0 l/m 5,2 km/h (1 Bft) SO 0,00 h 0,025 mm 12 W/m 8,9 C 12,2 C 7,4 km/h (2 Bft)
26/09/2007 20:00 12,1 C 80 % 1002,0 hPa 0,0 l/m 1,5 km/h (1 Bft) N 0,00 h 0,025 mm 0 W/m 8,7 C 12,1 C 2,9 km/h (1 Bft)
26/09/2007 21:00 11,9 C 81 % 1002,0 hPa 0,0 l/m 4,1 km/h (1 Bft) O-NO 0,00 h 0,025 mm 0 W/m 8,8 C 11,9 C 5,7 km/h (1 Bft)
26/09/2007 22:00 12,3 C 77 % 1001,5 hPa 0,0 l/m 4,5 km/h (1 Bft) O-NO 0,00 h 0,025 mm 0 W/m 8,5 C 12,3 C 6,3 km/h (2 Bft)
26/09/2007 23:00 11,8 C 79 % 1001,4 hPa 0,0 l/m 2,3 km/h (1 Bft) N-NO 0,00 h 0,025 mm 0 W/m 8,4 C 11,8 C 4,3 km/h (1 Bft)
27/09/2007 00:00 11,2 C 80 % 1001,5 hPa 0,0 l/m 4,0 km/h (1 Bft) NO 0,00 h 0,025 mm 0 W/m 7,9 C 11,2 C 5,7 km/h (1 Bft)
27/09/2007 01:00 10,9 C 80 % 1001,0 hPa 0,0 l/m 3,3 km/h (1 Bft) N-NO 0,00 h 0,025 mm 0 W/m 7,5 C 10,9 C 5,2 km/h (1 Bft)
27/09/2007 02:00 10,7 C 80 % 1000,5 hPa 0,0 l/m 6,3 km/h (2 Bft) O-NO 0,00 h 0,025 mm 0 W/m 7,3 C 10,7 C 9,4 km/h (2 Bft)
27/09/2007 03:00 10,5 C 74 % 1000,3 hPa 0,0 l/m 12,2 km/h (2 Bft) O-NO 0,00 h 0,025 mm 0 W/m 6,2 C 10,5 C 16,5 km/h (3 Bft)
27/09/2007 04:00 10,4 C 70 % 999,9 hPa 0,0 l/m 11,5 km/h (2 Bft) O-NO 0,00 h 0,051 mm 0 W/m 5,2 C 10,4 C 15,5 km/h (3 Bft)
27/09/2007 05:00 10,0 C 72 % 999,9 hPa 0,0 l/m 2,6 km/h (1 Bft) O-NO 0,00 h 0,051 mm 0 W/m 5,2 C 10,0 C 4,1 km/h (1 Bft)
27/09/2007 06:00 9,9 C 74 % 999,6 hPa 0,0 l/m 1,6 km/h (1 Bft) O-NO 0,00 h 0,025 mm 0 W/m 5,4 C 9,9 C 2,8 km/h (1 Bft)
27/09/2007 07:00 10,0 C 73 % 999,1 hPa 0,0 l/m 2,7 km/h (1 Bft) O-NO 0,00 h 0,025 mm 7 W/m 5,3 C 10,0 C 4,1 km/h (1 Bft)
27/09/2007 08:00 11,2 C 70 % 999,3 hPa 0,0 l/m 2,3 km/h (1 Bft) O-NO 0,17 h 0,025 mm 95 W/m 6,0 C 11,2 C 3,8 km/h (1 Bft)
27/09/2007 09:00 12,3 C 68 % 999,1 hPa 0,0 l/m 5,8 km/h (1 Bft) S 0,45 h 0,051 mm 214 W/m 6,5 C 12,3 C 8,4 km/h (2 Bft)
27/09/2007 10:00 14,2 C 59 % 999,1 hPa 0,0 l/m 4,7 km/h (1 Bft) NE 0,15 h 0,127 mm 231 W/m 6,2 C 14,2 C 7,7 km/h (2 Bft)
27/09/2007 11:00 16,3 C 57 % 999,3 hPa 0,0 l/m 10,2 km/h (2 Bft) E-NE 0,72 h 0,152 mm 526 W/m 7,7 C 16,3 C 14,4 km/h (3 Bft)
27/09/2007 12:00 16,5 C 66 % 999,3 hPa 0,0 l/m 10,8 km/h (2 Bft) E 0,48 h 0,356 mm 431 W/m 10,2 C 16,5 C 17,2 km/h (3 Bft)
27/09/2007 13:00 13,1 C 76 % 999,7 hPa 9,0 l/m 14,7 km/h (3 Bft) S-SE 0,00 h 0,279 mm 60 W/m 9,0 C 13,1 C 22,7 km/h (4 Bft)
27/09/2007 14:00 10,9 C 90 % 1000,1 hPa 2,4 l/m 7,8 km/h (2 Bft) S-SE 0,00 h 0,076 mm 15 W/m 9,3 C 10,9 C 11,8 km/h (2 Bft)
27/09/2007 15:00 10,3 C 93 % 1000,3 hPa 2,2 l/m 11,6 km/h (2 Bft) O-NO 0,00 h 0,025 mm 15 W/m 9,2 C 9,9 C 16,6 km/h (3 Bft)
27/09/2007 16:00 9,2 C 92 % 1000,0 hPa 3,0 l/m 17,5 km/h (3 Bft) O 0,00 h 0,025 mm 22 W/m 8,0 C 6,6 C 22,9 km/h (4 Bft)
27/09/2007 17:00 9,0 C 92 % 1000,4 hPa 4,2 l/m 9,6 km/h (2 Bft) O-NO 0,00 h 0,025 mm 36 W/m 7,8 C 7,7 C 13,6 km/h (3 Bft)
27/09/2007 18:00 9,7 C 93 % 1000,2 hPa 0,0 l/m 6,6 km/h (2 Bft) O-NO 0,38 h 0,025 mm 77 W/m 8,6 C 9,0 C 9,7 km/h (2 Bft)
27/09/2007 19:00 9,0 C 93 % 1000,5 hPa 0,0 l/m 4,5 km/h (1 Bft) O 0,05 h 0,051 mm 11 W/m 7,9 C 8,6 C 6,1 km/h (2 Bft)
27/09/2007 20:00 8,7 C 93 % 1000,5 hPa 0,0 l/m 6,1 km/h (2 Bft) O-NO 0,00 h 0,000 mm 0 W/m 7,6 C 8,0 C 8,0 km/h (2 Bft)
27/09/2007 21:00 8,2 C 92 % 1001,0 hPa 0,0 l/m 4,0 km/h (1 Bft) O 0,00 h 0,025 mm 0 W/m 6,9 C 7,7 C 6,3 km/h (2 Bft)
27/09/2007 22:00 8,0 C 92 % 1001,3 hPa 0,0 l/m 2,9 km/h (1 Bft) N-NO 0,00 h 0,025 mm 0 W/m 6,8 C 7,9 C 4,9 km/h (1 Bft)
27/09/2007 23:00 7,9 C 92 % 1001,5 hPa 0,0 l/m 3,0 km/h (1 Bft) NO 0,00 h 0,000 mm 0 W/m 6,7 C 7,8 C 4,7 km/h (1 Bft)
28/09/2007 00:00 8,1 C 91 % 1001,9 hPa 0,0 l/m 4,7 km/h (1 Bft) O-NO 0,00 h 0,000 mm 0 W/m 6,6 C 7,6 C 6,8 km/h (2 Bft)
28/09/2007 01:00 8,1 C 88 % 1002,3 hPa 0,0 l/m 4,7 km/h (1 Bft) NO 0,00 h 0,025 mm 0 W/m 6,3 C 7,7 C 7,4 km/h (2 Bft)
28/09/2007 02:00 8,3 C 85 % 1002,8 hPa 0,0 l/m 5,7 km/h (1 Bft) O-NO 0,00 h 0,025 mm 0 W/m 5,9 C 7,6 C 8,2 km/h (2 Bft)
28/09/2007 03:00 8,7 C 79 % 1002,8 hPa 0,0 l/m 5,8 km/h (2 Bft) O-NO 0,00 h 0,025 mm 0 W/m 5,3 C 8,0 C 8,0 km/h (2 Bft)
28/09/2007 04:00 8,3 C 80 % 1002,7 hPa 0,2 l/m 3,5 km/h (1 Bft) O 0,00 h 0,025 mm 0 W/m 5,1 C 8,0 C 4,8 km/h (1 Bft)
28/09/2007 05:00 8,2 C 81 % 1002,7 hPa 0,0 l/m 1,5 km/h (1 Bft) O 0,00 h 0,025 mm 0 W/m 5,1 C 8,2 C 2,6 km/h (1 Bft)
28/09/2007 06:00 7,9 C 82 % 1003,0 hPa 0,0 l/m 4,9 km/h (1 Bft) O-NO 0,00 h 0,025 mm 0 W/m 5,0 C 7,4 C 6,7 km/h (2 Bft)
28/09/2007 07:00 9,2 C 76 % 1003,4 hPa 0,0 l/m 3,0 km/h (1 Bft) O-NO 0,17 h 0,025 mm 20 W/m 5,2 C 9,1 C 5,3 km/h (1 Bft)
28/09/2007 08:00 10,5 C 72 % 1003,9 hPa 0,0 l/m 3,7 km/h (1 Bft) O-NO 0,43 h 0,025 mm 125 W/m 5,7 C 10,4 C 6,4 km/h (2 Bft)
28/09/2007 09:00 13,2 C 64 % 1004,4 hPa 0,0 l/m 5,8 km/h (2 Bft) O 1,00 h 0,076 mm 316 W/m 6,6 C 13,2 C 9,4 km/h (2 Bft)
28/09/2007 10:00 14,8 C 61 % 1004,8 hPa 0,0 l/m 20,4 km/h (4 Bft) O-SO 1,00 h 0,178 mm 484 W/m 7,2 C 14,8 C 29,9 km/h (5 Bft)
28/09/2007 11:00 17,1 C 52 % 1005,0 hPa 0,0 l/m 26,3 km/h (4 Bft) SO 1,00 h 0,356 mm 605 W/m 7,0 C 17,1 C 35,1 km/h (5 Bft)
28/09/2007 12:00 18,7 C 46 % 1005,4 hPa 0,0 l/m 32,6 km/h (5 Bft) SO 1,00 h 0,508 mm 668 W/m 6,8 C 18,7 C 41,6 km/h (6 Bft)
28/09/2007 13:00 19,3 C 44 % 1005,7 hPa 0,0 l/m 36,6 km/h (5 Bft) SO 1,00 h 0,610 mm 678 W/m 6,7 C 19,3 C 48,1 km/h (6 Bft)
28/09/2007 14:00 19,8 C 42 % 1005,5 hPa 0,0 l/m 41,8 km/h (6 Bft) SO 1,00 h 0,660 mm 643 W/m 6,5 C 19,8 C 52,9 km/h (7 Bft)
28/09/2007 15:00 20,1 C 41 % 1006,4 hPa 0,0 l/m 35,4 km/h (5 Bft) SO 1,00 h 0,076 mm 556 W/m 6,4 C 20,1 C 47,3 km/h (6 Bft)
28/09/2007 16:00 20,5 C 37 % 1007,2 hPa 0,0 l/m 31,1 km/h (5 Bft) SO 1,00 h 0,610 mm 425 W/m 5,5 C 20,5 C 40,9 km/h (6 Bft)
28/09/2007 17:00 20,1 C 38 % 1007,6 hPa 0,0 l/m 32,7 km/h (5 Bft) SO 1,00 h 0,533 mm 263 W/m 5,4 C 20,1 C 43,8 km/h (6 Bft)
28/09/2007 18:00 19,0 C 41 % 1008,4 hPa 0,0 l/m 30,3 km/h (5 Bft) SO 0,73 h 0,432 mm 91 W/m 5,7 C 19,0 C 40,4 km/h (6 Bft)
28/09/2007 19:00 17,3 C 46 % 1009,3 hPa 0,0 l/m 23,1 km/h (4 Bft) O-SO 0,00 h 0,305 mm 8 W/m 5,6 C 17,3 C 30,4 km/h (5 Bft)
28/09/2007 20:00 16,4 C 49 % 1010,1 hPa 0,0 l/m 24,9 km/h (4 Bft) O-SO 0,00 h 0,178 mm 0 W/m 5,6 C 16,4 C 33,4 km/h (5 Bft)
28/09/2007 21:00 15,5 C 54 % 1010,7 hPa 0,0 l/m 23,9 km/h (4 Bft) SO 0,00 h 0,178 mm 0 W/m 6,1 C 15,5 C 31,0 km/h (5 Bft)
28/09/2007 22:00 14,5 C 60 % 1011,3 hPa 0,0 l/m 24,4 km/h (4 Bft) O-SO 0,00 h 0,152 mm 0 W/m 6,9 C 14,5 C 32,2 km/h (5 Bft)
28/09/2007 23:00 13,7 C 64 % 1011,9 hPa 0,0 l/m 19,3 km/h (3 Bft) O-SO 0,00 h 0,127 mm 0 W/m 6,9 C 13,7 C 27,6 km/h (4 Bft)
29/09/2007 00:00 13,0 C 66 % 1012,6 hPa 0,0 l/m 14,8 km/h (3 Bft) O 0,00 h 0,102 mm 0 W/m 6,9 C 13,0 C 21,4 km/h (4 Bft)
29/09/2007 01:00 12,6 C 68 % 1013,2 hPa 0,0 l/m 10,4 km/h (2 Bft) O 0,00 h 0,076 mm 0 W/m 6,8 C 12,6 C 16,8 km/h (3 Bft)
29/09/2007 02:00 12,3 C 67 % 1013,6 hPa 0,0 l/m 11,2 km/h (2 Bft) O 0,00 h 0,051 mm 0 W/m 6,4 C 12,3 C 16,0 km/h (3 Bft)
29/09/2007 03:00 11,1 C 70 % 1014,0 hPa 0,0 l/m 3,1 km/h (1 Bft) O-NO 0,00 h 0,051 mm 0 W/m 5,9 C 11,1 C 4,9 km/h (1 Bft)
29/09/2007 04:00 11,4 C 69 % 1014,4 hPa 0,0 l/m 3,0 km/h (1 Bft) O-NO 0,00 h 0,025 mm 0 W/m 5,8 C 11,4 C 4,4 km/h (1 Bft)
29/09/2007 05:00 11,6 C 67 % 1014,9 hPa 0,0 l/m 5,6 km/h (1 Bft) O 0,00 h 0,025 mm 0 W/m 5,7 C 11,6 C 8,2 km/h (2 Bft)
29/09/2007 06:00 10,6 C 70 % 1015,2 hPa 0,0 l/m 1,4 km/h (1 Bft) N 0,00 h 0,051 mm 0 W/m 5,5 C 10,6 C 2,3 km/h (1 Bft)
29/09/2007 07:00 10,8 C 72 % 1015,6 hPa 0,0 l/m 3,7 km/h (1 Bft) S-SO 0,03 h 0,025 mm 14 W/m 5,9 C 10,8 C 4,8 km/h (1 Bft)
29/09/2007 08:00 12,4 C 66 % 1016,0 hPa 0,0 l/m 1,5 km/h (1 Bft) O 0,45 h 0,025 mm 102 W/m 6,2 C 12,4 C 3,1 km/h (1 Bft)
29/09/2007 09:00 14,9 C 58 % 1016,8 hPa 0,0 l/m 1,2 km/h (1 Bft) NE 0,92 h 0,051 mm 296 W/m 6,6 C 14,9 C 2,4 km/h (1 Bft)
29/09/2007 10:00 17,6 C 51 % 1017,4 hPa 0,0 l/m 3,3 km/h (1 Bft) E-NE 0,87 h 0,178 mm 431 W/m 7,3 C 17,6 C 6,0 km/h (2 Bft)
29/09/2007 11:00 18,5 C 50 % 1017,7 hPa 0,0 l/m 6,7 km/h (2 Bft) SO 0,55 h 0,254 mm 394 W/m 7,8 C 18,5 C 9,7 km/h (2 Bft)
29/09/2007 12:00 19,2 C 56 % 1017,8 hPa 0,0 l/m 10,0 km/h (2 Bft) SO 0,27 h 0,279 mm 355 W/m 10,2 C 19,2 C 14,5 km/h (3 Bft)
29/09/2007 13:00 18,7 C 64 % 1017,7 hPa 0,0 l/m 12,6 km/h (3 Bft) S 0,17 h 0,279 mm 277 W/m 11,6 C 18,7 C 17,4 km/h (3 Bft)
29/09/2007 14:00 18,2 C 72 % 1017,7 hPa 0,0 l/m 12,0 km/h (2 Bft) SO 0,00 h 0,229 mm 180 W/m 13,1 C 18,2 C 16,1 km/h (3 Bft)
29/09/2007 15:00 16,5 C 83 % 1018,1 hPa 0,2 l/m 15,4 km/h (3 Bft) O-SO 0,00 h 0,152 mm 96 W/m 13,6 C 16,5 C 20,6 km/h (4 Bft)
29/09/2007 16:00 17,4 C 82 % 1018,0 hPa 0,0 l/m 5,8 km/h (2 Bft) O-SO 0,03 h 0,102 mm 126 W/m 14,3 C 17,4 C 8,6 km/h (2 Bft)
29/09/2007 17:00 17,7 C 82 % 1018,1 hPa 0,0 l/m 0,7 km/h (0 Bft) S-SO 0,00 h 0,076 mm 45 W/m 14,6 C 17,7 C 1,4 km/h (1 Bft)
29/09/2007 18:00 16,9 C 88 % 1018,6 hPa 0,0 l/m 0,2 km/h (0 Bft) S-SO 0,00 h 0,025 mm 14 W/m 14,9 C 16,9 C 1,0 km/h (0 Bft)
29/09/2007 19:00 16,2 C 90 % 1018,9 hPa 0,0 l/m 0,8 km/h (0 Bft) S-SO 0,00 h 0,000 mm 5 W/m 14,5 C 16,2 C 1,9 km/h (1 Bft)
29/09/2007 20:00 15,6 C 91 % 1019,1 hPa 0,0 l/m 0,7 km/h (0 Bft) S-SO 0,00 h 0,000 mm 0 W/m 14,1 C 15,6 C 1,3 km/h (1 Bft)
29/09/2007 21:00 15,5 C 91 % 1019,5 hPa 0,0 l/m 0,5 km/h (0 Bft) O-NO 0,00 h 0,025 mm 0 W/m 14,0 C 15,5 C 1,3 km/h (1 Bft)
29/09/2007 22:00 15,5 C 91 % 1019,4 hPa 0,0 l/m 0,9 km/h (0 Bft) O-NO 0,00 h 0,025 mm 0 W/m 14,1 C 15,5 C 1,8 km/h (1 Bft)
29/09/2007 23:00 15,7 C 91 % 1019,6 hPa 0,0 l/m 0,6 km/h (0 Bft) S-SO 0,00 h 0,025 mm 0 W/m 14,2 C 15,7 C 1,0 km/h (0 Bft)
30/09/2007 00:00 15,6 C 90 % 1019,8 hPa 0,0 l/m 5,8 km/h (2 Bft) N-NE 0,00 h 0,025 mm 0 W/m 13,9 C 15,6 C 9,3 km/h (2 Bft)
30/09/2007 01:00 15,6 C 88 % 1020,0 hPa 0,0 l/m 4,6 km/h (1 Bft) N-NE 0,00 h 0,025 mm 0 W/m 13,6 C 15,6 C 7,6 km/h (2 Bft)
30/09/2007 02:00 15,7 C 87 % 1020,4 hPa 0,0 l/m 2,7 km/h (1 Bft) NE 0,00 h 0,025 mm 0 W/m 13,5 C 15,7 C 5,4 km/h (1 Bft)
30/09/2007 03:00 15,6 C 87 % 1020,5 hPa 0,0 l/m 2,4 km/h (1 Bft) NE 0,00 h 0,025 mm 0 W/m 13,4 C 15,6 C 4,5 km/h (1 Bft)
30/09/2007 04:00 15,4 C 88 % 1020,4 hPa 0,0 l/m 0,7 km/h (0 Bft) N 0,00 h 0,025 mm 0 W/m 13,4 C 15,4 C 1,7 km/h (1 Bft)
30/09/2007 05:00 15,2 C 89 % 1020,5 hPa 0,0 l/m 0,1 km/h (0 Bft) NE 0,00 h 0,025 mm 0 W/m 13,4 C 15,2 C 0,2 km/h (0 Bft)
30/09/2007 06:00 15,1 C 89 % 1020,6 hPa 0,0 l/m 0,9 km/h (0 Bft) E-NE 0,00 h 0,025 mm 0 W/m 13,3 C 15,1 C 1,8 km/h (1 Bft)
30/09/2007 07:00 14,8 C 91 % 1021,1 hPa 0,0 l/m 5,1 km/h (1 Bft) N 0,05 h 0,025 mm 19 W/m 13,3 C 14,8 C 8,5 km/h (2 Bft)
30/09/2007 08:00 15,6 C 89 % 1021,6 hPa 0,0 l/m 4,2 km/h (1 Bft) N 0,07 h 0,025 mm 83 W/m 13,8 C 15,6 C 7,2 km/h (2 Bft)
30/09/2007 09:00 18,7 C 72 % 1021,9 hPa 0,0 l/m 4,0 km/h (1 Bft) NE 0,97 h 0,051 mm 277 W/m 13,6 C 18,7 C 7,0 km/h (2 Bft)
30/09/2007 10:00 21,1 C 64 % 1022,4 hPa 0,0 l/m 9,9 km/h (2 Bft) E-NE 1,00 h 0,178 mm 432 W/m 14,0 C 21,1 C 14,5 km/h (3 Bft)
30/09/2007 11:00 22,5 C 62 % 1022,5 hPa 0,0 l/m 14,4 km/h (3 Bft) E 1,00 h 0,305 mm 547 W/m 14,8 C 22,5 C 19,7 km/h (3 Bft)
30/09/2007 12:00 22,6 C 64 % 1022,6 hPa 0,0 l/m 12,6 km/h (3 Bft) E 1,00 h 0,406 mm 615 W/m 15,6 C 22,6 C 19,6 km/h (3 Bft)
30/09/2007 13:00 22,3 C 68 % 1022,7 hPa 0,0 l/m 9,7 km/h (2 Bft) E 0,95 h 0,432 mm 562 W/m 16,1 C 22,3 C 17,5 km/h (3 Bft)
30/09/2007 14:00 22,3 C 69 % 1022,6 hPa 0,0 l/m 13,6 km/h (3 Bft) E-NE 0,73 h 0,381 mm 501 W/m 16,3 C 22,3 C 20,1 km/h (4 Bft)
30/09/2007 15:00 21,1 C 73 % 1022,7 hPa 0,0 l/m 11,5 km/h (2 Bft) E-NE 0,47 h 0,381 mm 309 W/m 16,0 C 21,1 C 17,3 km/h (3 Bft)
30/09/2007 16:00 20,3 C 76 % 1022,6 hPa 0,0 l/m 8,3 km/h (2 Bft) E 0,27 h 0,229 mm 241 W/m 15,8 C 20,3 C 13,9 km/h (3 Bft)
30/09/2007 17:00 20,8 C 73 % 1022,6 hPa 0,0 l/m 7,5 km/h (2 Bft) E 0,98 h 0,178 mm 282 W/m 15,7 C 20,8 C 12,3 km/h (3 Bft)
30/09/2007 18:00 19,5 C 78 % 1022,6 hPa 0,0 l/m 5,5 km/h (1 Bft) E 0,30 h 0,203 mm 70 W/m 15,6 C 19,5 C 8,7 km/h (2 Bft)
30/09/2007 19:00 17,9 C 87 % 1022,9 hPa 0,0 l/m 2,2 km/h (1 Bft) E 0,12 h 0,051 mm 11 W/m 15,7 C 17,9 C 4,1 km/h (1 Bft)
30/09/2007 20:00 17,1 C 89 % 1023,1 hPa 0,0 l/m 0,6 km/h (0 Bft) E-NE 0,00 h 0,000 mm 0 W/m 15,3 C 17,1 C 1,5 km/h (1 Bft)
30/09/2007 21:00 16,5 C 90 % 1023,1 hPa 0,0 l/m 1,8 km/h (1 Bft) E-NE 0,00 h 0,025 mm 0 W/m 14,8 C 16,5 C 3,4 km/h (1 Bft)
30/09/2007 22:00 15,9 C 90 % 1023,0 hPa 0,0 l/m 2,0 km/h (1 Bft) N-NO 0,00 h 0,025 mm 0 W/m 14,2 C 15,9 C 4,0 km/h (1 Bft)
30/09/2007 23:00 15,6 C 91 % 1022,9 hPa 0,0 l/m 2,0 km/h (1 Bft) NO 0,00 h 0,050 mm 0 W/m 14,0 C 15,6 C 3,5 km/h (1 Bft)
Min-Date _ 28/09/07 24/09/07 27/09/07 - 24/09/07 - - - - 28/09/07 28/09/07 24/09/07
_ Min-Heure 06:13 15:19 10:00 - 01:32 - - - - 17:46 06:16 01:37
Minimum _ 7,7 C 30 % 998,7 hPa - 0,0 km/h (0 Bft) - - - - 3,9 C 5,9 C 0,0 km/h (0 Bft)
Max-Date _ 24/09/07 26/09/07 30/09/07 26/09/07 28/09/07 - 24/09/07 28/09/07 27/09/07 30/09/07 24/09/07 28/09/07
_ Max-Heure 15:17 14:05 22:00 12:34 14:22 - 08:29 14:00 12:09 14:37 15:17 14:52
Maximum _ 26,8 C 96 % 1023,2 hPa 20,2 l/m 54,7 km/h
SO (7 Bft)
- 0,02 h 0,660 mm 875 W/m 17,1 C 26,8 C 66,0 km/h
SO (8 Bft)
Moyenne _ 16,1 C 69 % 1010,7 hPa #45,8 l/m 7,1 km/h (2 Bft) O-NO #46:29 h #21,828 mm 266 W/m 9,9 C 16,0 C 10,5 km/h (2 Bft)
Roquefort les pins